Time;durP1;ratioP1;P1;durP2;ratioP2;P2;SDS_P1;SDS_P2;PMS_P1;PMS_P2;Temp;Humidity;BMP_temperature;BMP_pressure;BME280_temperature;BME280_humidity;BME280_pressure;Samples;Min_cycle;Max_cycle;Signal;HPM_P1;HPM_P2
2024/01/29 00:00:04;;;;;;;7.05;2.47;;;7.20;49.30;;;;;;5095656;27;20133;-66
2024/01/29 00:02:35;;;;;;;9.93;2.65;;;7.20;49.40;;;;;;5084565;28;20048;-67
2024/01/29 00:05:06;;;;;;;12.73;3.65;;;7.20;49.40;;;;;;5074697;28;20070;-67
2024/01/29 00:07:35;;;;;;;17.45;2.72;;;7.20;49.40;;;;;;5074726;28;20056;-68
2024/01/29 00:10:04;;;;;;;4.38;2.35;;;7.10;49.40;;;;;;5074224;28;21459;-65
2024/01/29 00:12:32;;;;;;;4.68;2.88;;;7.10;49.40;;;;;;5082342;28;20055;-66
2024/01/29 00:15:01;;;;;;;4.20;1.98;;;7.00;49.30;;;;;;5067782;28;20048;-66
2024/01/29 00:17:30;;;;;;;4.85;2.45;;;7.00;49.40;;;;;;5076840;28;21860;-67
2024/01/29 00:19:58;;;;;;;2.58;1.73;;;7.00;49.50;;;;;;5076200;28;20151;-67
2024/01/29 00:22:28;;;;;;;6.22;2.15;;;7.00;49.40;;;;;;5084583;28;20081;-76
2024/01/29 00:24:56;;;;;;;8.02;2.17;;;7.00;49.50;;;;;;5076777;28;20060;-67
2024/01/29 00:27:25;;;;;;;10.32;3.33;;;6.90;49.40;;;;;;5071866;28;20070;-68
2024/01/29 00:29:53;;;;;;;3.88;2.28;;;6.90;49.40;;;;;;5074092;28;20106;-67
2024/01/29 00:32:21;;;;;;;10.45;2.35;;;6.90;49.50;;;;;;5074658;28;20051;-67
2024/01/29 00:34:51;;;;;;;12.88;2.25;;;6.90;49.60;;;;;;5077956;28;20575;-65
2024/01/29 00:37:22;;;;;;;1.80;1.40;;;6.80;49.60;;;;;;5082383;27;20505;-68
2024/01/29 00:39:52;;;;;;;3.17;1.67;;;6.90;49.70;;;;;;5081846;28;20052;-67
2024/01/29 00:42:21;;;;;;;2.20;1.83;;;6.90;49.60;;;;;;5078683;28;20105;-67
2024/01/29 00:44:49;;;;;;;5.43;2.08;;;6.90;49.60;;;;;;5069500;28;20056;-67
2024/01/29 00:47:20;;;;;;;17.30;3.55;;;6.80;49.60;;;;;;5067378;28;20059;-67
2024/01/29 00:49:48;;;;;;;5.57;2.72;;;6.80;49.60;;;;;;5079713;28;20565;-67
2024/01/29 00:52:17;;;;;;;3.70;2.40;;;6.80;49.60;;;;;;5076469;28;20521;-67
2024/01/29 00:54:45;;;;;;;10.98;2.20;;;6.80;49.60;;;;;;5071858;28;20494;-66
2024/01/29 00:57:15;;;;;;;4.75;2.30;;;6.80;49.60;;;;;;5064243;28;20121;-66
2024/01/29 00:59:44;;;;;;;6.45;2.47;;;6.80;49.60;;;;;;5082368;28;20146;-68
2024/01/29 01:02:12;;;;;;;3.13;1.80;;;6.80;49.70;;;;;;5073462;28;20056;-68
2024/01/29 01:04:40;;;;;;;5.60;1.60;;;6.80;49.80;;;;;;5076169;28;20663;-67
2024/01/29 01:07:09;;;;;;;4.38;1.67;;;6.70;49.90;;;;;;5061670;28;20130;-66
2024/01/29 01:09:37;;;;;;;5.70;2.03;;;6.70;49.90;;;;;;5074649;28;20177;-66
2024/01/29 01:12:06;;;;;;;4.75;2.13;;;6.70;49.90;;;;;;5078454;28;20067;-67
2024/01/29 01:14:36;;;;;;;1.90;1.80;;;6.70;49.90;;;;;;5081930;27;20143;-66
2024/01/29 01:17:05;;;;;;;4.20;2.35;;;6.70;49.80;;;;;;5064833;28;20052;-66
2024/01/29 01:19:33;;;;;;;7.57;3.40;;;6.70;49.80;;;;;;5079217;28;20122;-66
2024/01/29 01:22:02;;;;;;;3.00;2.15;;;6.60;49.70;;;;;;5072924;28;20045;-68
2024/01/29 01:24:31;;;;;;;3.47;1.88;;;6.60;49.70;;;;;;5075152;28;20032;-66
2024/01/29 01:26:59;;;;;;;5.82;2.17;;;6.50;49.60;;;;;;5068820;28;20059;-67
2024/01/29 01:29:27;;;;;;;9.75;2.90;;;6.50;49.70;;;;;;5074415;28;20059;-67
2024/01/29 01:31:57;;;;;;;4.93;2.85;;;6.50;49.80;;;;;;5077458;28;20505;-67
2024/01/29 01:34:26;;;;;;;2.83;1.73;;;6.50;49.90;;;;;;5075963;28;20060;-67
2024/01/29 01:36:55;;;;;;;22.90;6.40;;;6.40;49.90;;;;;;5078722;28;20055;-66
2024/01/29 01:39:23;;;;;;;9.30;3.92;;;6.40;49.90;;;;;;5073861;28;20146;-66
2024/01/29 01:41:52;;;;;;;6.05;2.90;;;6.40;49.90;;;;;;5071546;28;20063;-65
2024/01/29 01:44:20;;;;;;;5.47;2.80;;;6.40;50.00;;;;;;5071065;28;20056;-67
2024/01/29 01:46:48;;;;;;;5.15;2.50;;;6.40;50.10;;;;;;5068142;28;20064;-66
2024/01/29 01:49:21;;;;;;;6.38;2.63;;;6.40;50.20;;;;;;5068011;28;20133;-66
2024/01/29 01:51:50;;;;;;;8.50;2.15;;;6.40;50.30;;;;;;5073785;28;20065;-67
2024/01/29 01:54:19;;;;;;;9.18;2.65;;;6.40;50.30;;;;;;5073238;28;20044;-66
2024/01/29 01:56:49;;;;;;;5.22;2.13;;;6.40;50.40;;;;;;5083890;28;20084;-67
2024/01/29 01:59:20;;;;;;;9.38;3.28;;;6.40;50.30;;;;;;5065922;28;21081;-65
2024/01/29 02:01:49;;;;;;;5.95;2.53;;;6.40;50.30;;;;;;5077447;28;20060;-68
2024/01/29 02:04:19;;;;;;;5.88;3.47;;;6.40;50.50;;;;;;5071833;28;20053;-68
2024/01/29 02:06:48;;;;;;;4.35;2.55;;;6.40;50.50;;;;;;5076288;28;20070;-67
2024/01/29 02:09:17;;;;;;;6.63;3.55;;;6.40;50.50;;;;;;5083327;27;20873;-64
2024/01/29 02:11:45;;;;;;;4.63;2.65;;;6.40;50.50;;;;;;5080476;28;20458;-66
2024/01/29 02:14:14;;;;;;;6.10;2.60;;;6.40;50.40;;;;;;5072071;28;20068;-68
2024/01/29 02:16:42;;;;;;;3.00;2.05;;;6.40;50.40;;;;;;5074133;28;20494;-67
2024/01/29 02:19:15;;;;;;;6.00;2.47;;;6.40;50.40;;;;;;5071528;28;20063;-67
2024/01/29 02:21:45;;;;;;;7.43;2.25;;;6.40;50.50;;;;;;5073877;28;20168;-67
2024/01/29 02:24:15;;;;;;;8.45;2.33;;;6.40;50.60;;;;;;5068990;28;20052;-67
2024/01/29 02:26:47;;;;;;;4.63;2.70;;;6.40;50.60;;;;;;5075744;28;20048;-68
2024/01/29 02:29:16;;;;;;;10.63;3.63;;;6.40;50.60;;;;;;5070966;28;20107;-69
2024/01/29 02:31:44;;;;;;;2.60;1.95;;;6.40;50.70;;;;;;5081808;28;20139;-66
2024/01/29 02:34:12;;;;;;;2.53;1.67;;;6.40;50.70;;;;;;5082257;28;20046;-66
2024/01/29 02:36:41;;;;;;;7.95;3.65;;;6.40;50.70;;;;;;5068135;28;20087;-62
2024/01/29 02:39:10;;;;;;;9.77;2.97;;;6.40;50.70;;;;;;5063866;28;20060;-66
2024/01/29 02:41:39;;;;;;;11.70;2.83;;;6.50;50.70;;;;;;5094991;27;20425;-66
2024/01/29 02:44:08;;;;;;;4.57;2.17;;;6.50;50.90;;;;;;5079853;28;20086;-66
2024/01/29 02:46:40;;;;;;;6.05;2.45;;;6.50;50.60;;;;;;5074965;28;20060;-65
2024/01/29 02:49:08;;;;;;;6.65;2.95;;;6.40;50.50;;;;;;5071677;28;20052;-66
2024/01/29 02:51:37;;;;;;;10.60;3.15;;;6.40;50.50;;;;;;5073586;28;20056;-66
2024/01/29 02:54:05;;;;;;;10.50;3.60;;;6.40;50.50;;;;;;5066457;28;20055;-66
2024/01/29 02:56:34;;;;;;;5.40;3.25;;;6.40;50.50;;;;;;5067573;28;20064;-66
2024/01/29 02:59:03;;;;;;;4.22;2.60;;;6.30;50.40;;;;;;5086745;28;20499;-66
2024/01/29 03:01:32;;;;;;;19.85;2.47;;;6.30;50.50;;;;;;5077440;28;20678;-67
2024/01/29 03:04:00;;;;;;;11.23;4.60;;;6.30;50.50;;;;;;5067405;28;20106;-67
2024/01/29 03:06:29;;;;;;;7.43;3.05;;;6.30;50.90;;;;;;5078414;28;20070;-66
2024/01/29 03:08:57;;;;;;;4.97;2.38;;;6.20;50.60;;;;;;5069924;28;20147;-70
2024/01/29 03:11:25;;;;;;;3.03;2.08;;;6.20;50.60;;;;;;5071144;28;20048;-64
2024/01/29 03:13:54;;;;;;;1.77;1.67;;;6.20;50.70;;;;;;5070149;28;20155;-69
2024/01/29 03:16:23;;;;;;;13.35;2.67;;;6.20;50.70;;;;;;5073157;28;20062;-66
2024/01/29 03:18:52;;;;;;;2.67;1.77;;;6.20;50.70;;;;;;5073839;28;20505;-65
2024/01/29 03:21:21;;;;;;;3.28;2.05;;;6.30;50.70;;;;;;5070908;28;20131;-67
2024/01/29 03:23:49;;;;;;;3.10;1.65;;;6.20;50.90;;;;;;5092590;27;20138;-67
2024/01/29 03:26:17;;;;;;;2.28;1.95;;;6.30;50.80;;;;;;5075118;28;20061;-67
2024/01/29 03:28:46;;;;;;;20.65;4.97;;;6.30;51.00;;;;;;5080772;28;20060;-67
2024/01/29 03:31:14;;;;;;;10.05;3.63;;;6.30;50.60;;;;;;5070192;28;20884;-67
2024/01/29 03:33:44;;;;;;;6.10;2.25;;;6.20;50.70;;;;;;5074828;28;20071;-69
2024/01/29 03:36:12;;;;;;;4.00;1.98;;;6.20;50.60;;;;;;5075293;28;20775;-68
2024/01/29 03:38:41;;;;;;;3.83;2.13;;;6.20;50.60;;;;;;5071622;28;20048;-66
2024/01/29 03:41:09;;;;;;;6.72;2.67;;;6.20;50.60;;;;;;5077842;28;20058;-66
2024/01/29 03:43:37;;;;;;;2.08;1.73;;;6.20;50.70;;;;;;5089380;27;20151;-67
2024/01/29 03:46:06;;;;;;;14.93;4.22;;;6.20;50.70;;;;;;5075636;28;20060;-68
2024/01/29 03:48:34;;;;;;;7.07;2.60;;;6.20;50.70;;;;;;5071793;28;20155;-67
2024/01/29 03:51:04;;;;;;;3.85;1.75;;;6.20;50.80;;;;;;5081528;28;20168;-69
2024/01/29 03:53:33;;;;;;;26.33;2.67;;;6.10;50.70;;;;;;5070396;28;20129;-66
2024/01/29 03:56:01;;;;;;;14.98;3.95;;;6.10;50.70;;;;;;5081383;28;20075;-67
2024/01/29 03:58:29;;;;;;;4.07;2.17;;;6.10;50.70;;;;;;5076469;28;20137;-66
2024/01/29 04:00:58;;;;;;;3.08;2.00;;;6.10;50.70;;;;;;5071688;28;21182;-67
2024/01/29 04:03:26;;;;;;;2.92;1.85;;;6.10;50.80;;;;;;5073625;28;20051;-67
2024/01/29 04:05:55;;;;;;;3.80;2.05;;;6.10;50.80;;;;;;5077205;28;20059;-66
2024/01/29 04:08:25;;;;;;;22.80;2.03;;;6.10;50.80;;;;;;5071171;28;20470;-67
2024/01/29 04:10:54;;;;;;;8.63;2.45;;;6.10;50.90;;;;;;5071062;28;20135;-67
2024/01/29 04:13:24;;;;;;;2.88;1.98;;;6.10;50.80;;;;;;5085294;28;20487;-67
2024/01/29 04:15:53;;;;;;;5.82;2.67;;;6.20;50.90;;;;;;5076491;28;20094;-65
2024/01/29 04:18:22;;;;;;;6.40;2.42;;;6.20;51.00;;;;;;5069403;28;20063;-66
2024/01/29 04:20:50;;;;;;;5.45;2.35;;;6.20;51.10;;;;;;5084794;28;20075;-66
2024/01/29 04:23:19;;;;;;;1.90;1.70;;;6.20;50.90;;;;;;5072431;28;20076;-65
2024/01/29 04:25:49;;;;;;;2.30;1.60;;;6.30;50.90;;;;;;5085459;28;20059;-67
2024/01/29 04:28:18;;;;;;;5.30;2.13;;;6.40;51.10;;;;;;5074127;28;20060;-65
2024/01/29 04:30:46;;;;;;;5.68;2.45;;;6.40;51.00;;;;;;5071671;28;20071;-67
2024/01/29 04:33:14;;;;;;;4.93;2.85;;;6.40;50.90;;;;;;5067314;28;20056;-68
2024/01/29 04:35:43;;;;;;;4.28;2.58;;;6.40;50.80;;;;;;5072027;28;20525;-65
2024/01/29 04:38:11;;;;;;;2.40;1.92;;;6.40;50.90;;;;;;5077130;28;20131;-70
2024/01/29 04:40:41;;;;;;;6.28;2.60;;;6.40;51.10;;;;;;5067931;28;20052;-68
2024/01/29 04:43:11;;;;;;;2.90;2.35;;;6.40;50.90;;;;;;5065497;28;20056;-67
2024/01/29 04:45:39;;;;;;;7.28;4.07;;;6.40;50.80;;;;;;5063788;28;20587;-67
2024/01/29 04:48:08;;;;;;;6.85;2.45;;;6.40;50.80;;;;;;5073591;28;20056;-68
2024/01/29 04:50:36;;;;;;;6.03;2.50;;;6.40;50.90;;;;;;5066589;28;20055;-67
2024/01/29 04:53:05;;;;;;;2.70;1.30;;;6.40;51.00;;;;;;5071670;28;20133;-66
2024/01/29 04:55:33;;;;;;;2.75;1.60;;;6.50;50.90;;;;;;5055977;28;20052;-68
2024/01/29 04:58:01;;;;;;;0.70;0.70;;;6.60;51.10;;;;;;5070460;28;20059;-65
2024/01/29 05:00:31;;;;;;;4.35;2.00;;;6.70;51.00;;;;;;5069738;28;20119;-66
2024/01/29 05:02:59;;;;;;;1.55;1.15;;;6.80;51.10;;;;;;5070190;28;20064;-66
2024/01/29 05:05:29;;;;;;;1.96;1.26;;;6.90;51.10;;;;;;5051641;28;1109432;-67
2024/01/29 05:07:57;;;;;;;1.58;1.45;;;7.10;50.90;;;;;;5068981;28;20055;-67
2024/01/29 05:10:25;;;;;;;3.45;1.10;;;7.10;50.80;;;;;;5078917;28;20068;-68
2024/01/29 05:12:54;;;;;;;0.70;0.70;;;7.20;50.80;;;;;;5073276;28;20056;-66
2024/01/29 05:15:22;;;;;;;1.45;1.10;;;7.30;50.70;;;;;;5075247;28;20135;-67
2024/01/29 05:17:52;;;;;;;0.70;0.70;;;7.40;50.60;;;;;;5060918;28;20052;-67
2024/01/29 05:20:20;;;;;;;1.90;1.10;;;7.40;50.50;;;;;;5069489;28;20517;-66
2024/01/29 05:22:49;;;;;;;3.10;0.98;;;7.50;50.40;;;;;;5069932;28;20067;-68
2024/01/29 05:25:17;;;;;;;1.00;1.00;;;7.50;50.20;;;;;;5078991;28;20580;-68
2024/01/29 05:27:45;;;;;;;1.25;1.15;;;7.50;50.20;;;;;;5060787;28;20060;-67
2024/01/29 05:30:15;;;;;;;1.30;0.95;;;7.60;50.20;;;;;;5070744;28;20064;-66
2024/01/29 05:32:43;;;;;;;2.00;1.15;;;7.60;50.20;;;;;;5067675;28;20062;-67
2024/01/29 05:35:14;;;;;;;1.50;1.30;;;7.60;50.20;;;;;;5077431;28;20618;-75
2024/01/29 05:37:43;;;;;;;1.00;0.98;;;7.60;50.10;;;;;;5064772;28;20074;-65
2024/01/29 05:40:12;;;;;;;1.33;1.23;;;7.70;50.10;;;;;;5071954;28;20052;-65
2024/01/29 05:42:41;;;;;;;1.35;1.25;;;7.70;50.00;;;;;;5070090;28;20056;-67
2024/01/29 05:45:09;;;;;;;1.23;1.13;;;7.70;50.00;;;;;;5068052;28;20060;-69
2024/01/29 05:47:38;;;;;;;1.65;1.17;;;7.70;50.00;;;;;;5064093;28;20094;-68
2024/01/29 05:50:08;;;;;;;2.13;1.40;;;7.80;50.10;;;;;;5067686;28;20055;-67
2024/01/29 05:52:38;;;;;;;1.05;0.93;;;7.80;50.00;;;;;;5083544;28;20106;-70
2024/01/29 05:55:08;;;;;;;0.68;0.68;;;7.80;49.90;;;;;;5067264;28;20056;-77
2024/01/29 05:57:36;;;;;;;4.82;1.25;;;7.80;49.90;;;;;;5067799;28;20725;-65
2024/01/29 06:00:10;;;;;;;3.63;2.25;;;7.80;49.80;;;;;;5076365;27;20055;-68
2024/01/29 06:02:45;;;;;;;22.27;3.40;;;7.80;49.80;;;;;;5073057;28;20067;-67
2024/01/29 06:05:14;;;;;;;5.35;3.03;;;7.70;49.60;;;;;;5077167;28;20064;-69
2024/01/29 06:07:44;;;;;;;15.65;4.25;;;7.50;49.40;;;;;;5069375;28;20049;-63
2024/01/29 06:10:16;;;;;;;6.93;3.65;;;7.40;49.50;;;;;;5061633;27;20134;-76
2024/01/29 06:12:44;;;;;;;6.78;3.53;;;7.40;50.00;;;;;;5069870;28;20083;-64
2024/01/29 06:15:13;;;;;;;11.05;4.97;;;7.00;49.70;;;;;;5072271;28;20079;-66
2024/01/29 06:17:41;;;;;;;27.90;4.60;;;6.90;49.70;;;;;;5061107;28;20096;-67
2024/01/29 06:20:13;;;;;;;16.95;3.83;;;6.70;49.80;;;;;;5061037;28;20139;-64
2024/01/29 06:22:47;;;;;;;7.82;4.03;;;6.70;50.30;;;;;;5073644;28;20060;-65
2024/01/29 06:25:19;;;;;;;11.88;5.25;;;6.50;50.00;;;;;;5064804;28;20060;-75
2024/01/29 06:27:49;;;;;;;6.32;3.85;;;6.40;50.00;;;;;;5050563;28;20476;-61
2024/01/29 06:30:17;;;;;;;13.05;5.13;;;6.40;50.20;;;;;;5066125;28;20058;-62
2024/01/29 06:32:46;;;;;;;17.38;5.63;;;6.30;50.10;;;;;;5058865;28;20082;-64
2024/01/29 06:35:15;;;;;;;10.15;4.65;;;6.20;50.20;;;;;;5066641;28;20048;-62
2024/01/29 06:37:44;;;;;;;41.45;6.03;;;6.20;50.30;;;;;;5064834;28;20150;-61
2024/01/29 06:40:14;;;;;;;45.40;5.55;;;6.10;50.30;;;;;;5067677;28;20056;-67
2024/01/29 06:42:43;;;;;;;30.98;5.68;;;6.00;50.40;;;;;;5060579;27;20657;-68
2024/01/29 06:45:11;;;;;;;50.45;7.53;;;6.00;50.50;;;;;;5063027;28;20062;-67
2024/01/29 06:47:40;;;;;;;9.13;4.97;;;6.00;50.50;;;;;;5062693;28;20075;-62
2024/01/29 06:50:09;;;;;;;14.43;4.95;;;6.00;50.60;;;;;;5065627;28;20040;-57
2024/01/29 06:52:37;;;;;;;12.52;4.88;;;6.00;50.70;;;;;;5064733;28;20052;-61
2024/01/29 06:55:06;;;;;;;10.48;5.43;;;5.90;50.70;;;;;;5077569;28;20055;-60
2024/01/29 06:57:36;;;;;;;11.68;4.55;;;5.90;50.70;;;;;;5060368;28;20151;-61
2024/01/29 07:00:06;;;;;;;16.77;6.40;;;5.80;50.70;;;;;;5062711;28;20151;-64
2024/01/29 07:02:34;;;;;;;9.73;4.45;;;5.80;50.70;;;;;;5057714;28;20056;-63
2024/01/29 07:05:03;;;;;;;11.23;4.10;;;5.80;50.80;;;;;;5066583;28;20044;-65
2024/01/29 07:07:31;;;;;;;11.43;5.35;;;5.80;50.80;;;;;;5056032;28;20046;-65
2024/01/29 07:10:00;;;;;;;26.20;5.45;;;5.70;50.80;;;;;;5061156;28;20049;-63
2024/01/29 07:12:28;;;;;;;11.85;6.05;;;5.70;50.90;;;;;;5060005;28;20107;-63
2024/01/29 07:14:58;;;;;;;19.92;6.68;;;5.70;51.00;;;;;;5053517;28;20063;-62
2024/01/29 07:17:27;;;;;;;17.70;6.00;;;5.70;51.00;;;;;;5060167;28;20111;-61
2024/01/29 07:19:55;;;;;;;10.68;6.55;;;5.70;51.10;;;;;;5063341;28;20060;-64
2024/01/29 07:22:24;;;;;;;19.38;4.85;;;5.70;51.20;;;;;;5054464;28;20067;-62
2024/01/29 07:24:53;;;;;;;24.38;5.43;;;5.70;51.20;;;;;;5056594;28;20076;-61
2024/01/29 07:27:21;;;;;;;13.60;6.00;;;5.70;51.20;;;;;;5058393;28;20135;-61
2024/01/29 07:29:51;;;;;;;21.63;6.10;;;5.80;51.30;;;;;;5044648;28;20056;-60
2024/01/29 07:32:21;;;;;;;12.50;5.30;;;5.80;51.30;;;;;;5064750;28;20068;-62
2024/01/29 07:34:49;;;;;;;17.65;4.88;;;5.80;51.40;;;;;;5054844;28;20078;-68
2024/01/29 07:37:20;;;;;;;12.27;5.75;;;5.90;51.40;;;;;;5061950;28;20060;-61
2024/01/29 07:39:49;;;;;;;11.45;5.57;;;5.90;51.40;;;;;;5059780;28;20052;-62
2024/01/29 07:42:17;;;;;;;17.50;6.15;;;6.00;51.40;;;;;;5063430;28;20606;-68
2024/01/29 07:44:45;;;;;;;14.10;6.47;;;6.10;51.40;;;;;;5064467;28;20140;-66
2024/01/29 07:47:14;;;;;;;8.27;4.43;;;6.10;52.00;;;;;;5065112;28;20063;-74
2024/01/29 07:49:48;;;;;;;11.23;6.60;;;6.20;51.30;;;;;;5062962;28;20135;-65
2024/01/29 07:52:16;;;;;;;31.02;6.78;;;6.30;51.40;;;;;;5061243;28;20048;-67
2024/01/29 07:54:45;;;;;;;23.08;7.05;;;6.40;51.40;;;;;;5064983;28;20048;-66
2024/01/29 07:57:13;;;;;;;11.07;5.10;;;6.40;51.30;;;;;;5063421;28;20079;-65
2024/01/29 07:59:41;;;;;;;22.23;7.45;;;6.50;51.30;;;;;;5065901;28;20316;-66
2024/01/29 08:02:10;;;;;;;15.43;5.45;;;6.50;51.20;;;;;;5068170;28;20155;-66
2024/01/29 08:04:38;;;;;;;10.00;4.47;;;6.60;51.40;;;;;;5060090;28;20155;-67
2024/01/29 08:07:08;;;;;;;18.75;6.60;;;6.60;51.40;;;;;;5068726;28;21565;-66
2024/01/29 08:09:37;;;;;;;23.45;8.38;;;6.60;51.40;;;;;;5070820;28;20135;-66
2024/01/29 08:12:06;;;;;;;17.55;6.00;;;6.70;51.50;;;;;;5077869;28;20510;-77
2024/01/29 08:14:35;;;;;;;11.32;5.75;;;6.80;51.80;;;;;;5064835;28;20085;-68
2024/01/29 08:17:03;;;;;;;19.42;6.63;;;6.80;51.50;;;;;;5061858;28;20072;-66
2024/01/29 08:19:32;;;;;;;14.27;5.47;;;6.90;51.40;;;;;;5056550;28;20517;-65
2024/01/29 08:22:01;;;;;;;12.95;5.70;;;7.00;51.40;;;;;;5068881;28;20178;-63
2024/01/29 08:24:31;;;;;;;18.33;5.40;;;7.10;51.50;;;;;;5064832;28;20326;-66
2024/01/29 08:26:59;;;;;;;17.45;4.95;;;7.10;51.40;;;;;;5068388;28;20635;-66
2024/01/29 08:29:28;;;;;;;24.13;4.53;;;7.20;51.40;;;;;;5060106;28;20052;-67
2024/01/29 08:31:56;;;;;;;31.67;4.45;;;7.30;51.50;;;;;;5062507;28;20164;-63
2024/01/29 08:34:25;;;;;;;14.80;5.22;;;7.40;51.50;;;;;;5073202;28;20829;-65
2024/01/29 08:36:54;;;;;;;22.58;6.00;;;7.50;51.50;;;;;;5060430;28;20517;-63
2024/01/29 08:39:22;;;;;;;23.23;5.75;;;7.60;51.50;;;;;;5062984;28;20059;-64
2024/01/29 08:41:53;;;;;;;25.63;5.28;;;7.80;51.50;;;;;;5068107;28;20719;-63
2024/01/29 08:44:21;;;;;;;13.02;6.35;;;8.10;52.10;;;;;;5065974;28;20082;-62
2024/01/29 08:46:49;;;;;;;16.33;7.97;;;8.60;52.90;;;;;;5065341;28;20052;-65
2024/01/29 08:49:18;;;;;;;16.20;6.55;;;9.30;53.50;;;;;;5066502;28;20168;-65
2024/01/29 08:51:46;;;;;;;12.85;4.85;;;10.00;53.30;;;;;;5062934;28;20040;-65
2024/01/29 08:54:15;;;;;;;15.07;5.82;;;10.70;53.00;;;;;;5061737;28;20069;-65
2024/01/29 08:56:43;;;;;;;10.90;5.50;;;11.40;52.60;;;;;;5063759;28;20156;-63
2024/01/29 08:59:15;;;;;;;12.45;4.95;;;12.00;52.10;;;;;;5067554;28;20056;-63
2024/01/29 09:01:43;;;;;;;15.80;5.18;;;12.60;51.60;;;;;;5055524;28;21082;-61
2024/01/29 09:04:12;;;;;;;21.30;5.57;;;13.10;51.10;;;;;;5062028;28;20066;-63
2024/01/29 09:06:41;;;;;;;16.90;6.30;;;13.50;50.50;;;;;;5057511;28;20055;-62
2024/01/29 09:09:09;;;;;;;19.98;6.97;;;13.90;50.10;;;;;;5067277;28;20113;-64
2024/01/29 09:11:37;;;;;;;17.70;6.65;;;14.30;49.70;;;;;;5061244;28;20054;-63
2024/01/29 09:14:06;;;;;;;25.85;7.32;;;14.80;49.40;;;;;;5070112;28;20056;-62
2024/01/29 09:16:36;;;;;;;15.98;5.03;;;15.20;49.10;;;;;;5066481;28;20121;-62
2024/01/29 09:19:04;;;;;;;14.77;5.70;;;15.60;48.40;;;;;;5067887;28;20113;-67
2024/01/29 09:21:35;;;;;;;17.65;6.47;;;15.90;48.30;;;;;;5062033;28;20049;-64
2024/01/29 09:24:03;;;;;;;18.23;5.82;;;16.30;48.10;;;;;;5066039;28;20621;-62
2024/01/29 09:26:32;;;;;;;16.35;5.75;;;16.70;47.70;;;;;;5070380;28;20051;-62
2024/01/29 09:29:00;;;;;;;14.63;5.32;;;17.20;47.30;;;;;;5064214;28;20648;-60
2024/01/29 09:31:28;;;;;;;26.67;6.05;;;17.50;46.60;;;;;;5060968;28;20152;-63
2024/01/29 09:33:58;;;;;;;23.05;5.75;;;17.70;46.40;;;;;;5055726;28;20064;-63
2024/01/29 09:36:27;;;;;;;20.02;4.20;;;18.10;46.10;;;;;;5059831;28;20048;-61
2024/01/29 09:38:57;;;;;;;28.10;6.38;;;18.40;45.50;;;;;;5059344;28;20823;-61
2024/01/29 09:41:26;;;;;;;19.10;5.07;;;18.60;45.40;;;;;;5050937;28;20658;-60
2024/01/29 09:43:57;;;;;;;13.50;4.68;;;18.90;45.00;;;;;;5057904;28;20117;-60
2024/01/29 09:46:27;;;;;;;26.55;5.13;;;19.20;44.80;;;;;;5059966;28;20058;-64
2024/01/29 09:48:58;;;;;;;14.55;4.82;;;19.60;44.60;;;;;;5068093;28;20166;-58
2024/01/29 09:51:28;;;;;;;12.25;5.80;;;19.90;44.10;;;;;;5063716;28;20142;-61
2024/01/29 09:53:57;;;;;;;14.10;4.63;;;20.30;43.80;;;;;;5065298;28;20056;-62
2024/01/29 09:56:25;;;;;;;21.13;5.35;;;20.40;43.30;;;;;;5063126;28;20056;-61
2024/01/29 09:58:54;;;;;;;12.30;5.65;;;20.80;43.10;;;;;;5061721;28;20596;-61
2024/01/29 10:01:24;;;;;;;14.73;4.43;;;21.20;42.80;;;;;;5063961;28;20168;-61
2024/01/29 10:03:52;;;;;;;12.48;4.28;;;21.80;42.20;;;;;;5060185;28;20078;-62
2024/01/29 10:06:22;;;;;;;12.68;4.45;;;22.30;41.70;;;;;;5061887;28;20135;-62
2024/01/29 10:08:51;;;;;;;7.15;3.67;;;22.80;41.20;;;;;;5051977;28;20379;-63
2024/01/29 10:11:20;;;;;;;8.77;3.72;;;23.20;40.30;;;;;;5063004;28;20407;-64
2024/01/29 10:13:48;;;;;;;31.33;5.30;;;23.40;39.70;;;;;;5057649;28;20044;-63
2024/01/29 10:16:17;;;;;;;13.13;4.70;;;23.50;39.50;;;;;;5062612;28;20231;-62
2024/01/29 10:18:55;;;;;;;16.98;4.03;;;23.90;39.30;;;;;;5064039;28;20056;-64
2024/01/29 10:21:26;;;;;;;12.40;3.75;;;24.40;38.90;;;;;;5060800;28;20037;-62
2024/01/29 10:23:56;;;;;;;17.65;3.63;;;24.70;37.90;;;;;;5061559;28;20079;-65
2024/01/29 10:26:26;;;;;;;16.73;3.38;;;24.80;37.60;;;;;;5057538;28;20516;-66
2024/01/29 10:29:02;;;;;;;9.82;4.07;;;25.20;37.60;;;;;;5065215;28;20406;-64
2024/01/29 10:31:32;;;;;;;15.07;3.58;;;25.70;36.90;;;;;;5060155;28;20053;-63
2024/01/29 10:34:00;;;;;;;14.63;4.30;;;26.10;36.60;;;;;;5054160;28;20139;-65
2024/01/29 10:36:31;;;;;;;13.35;3.15;;;26.50;36.10;;;;;;5054243;28;20165;-62
2024/01/29 10:39:02;;;;;;;20.88;3.08;;;26.60;35.40;;;;;;5066240;28;20052;-63
2024/01/29 10:41:33;;;;;;;18.73;4.38;;;26.90;35.40;;;;;;5062237;28;20075;-60
2024/01/29 10:44:04;;;;;;;15.13;4.78;;;27.20;34.90;;;;;;5066984;28;20627;-63
2024/01/29 10:46:37;;;;;;;13.80;3.53;;;27.30;34.40;;;;;;5061026;28;20063;-64
2024/01/29 10:49:06;;;;;;;13.98;4.03;;;27.40;34.00;;;;;;5061920;28;20098;-63
2024/01/29 10:51:37;;;;;;;7.25;2.03;;;27.50;33.90;;;;;;5053122;28;20056;-63
2024/01/29 10:54:08;;;;;;;3.88;2.20;;;27.60;33.40;;;;;;5062738;28;20056;-63
2024/01/29 10:56:37;;;;;;;7.85;1.85;;;27.70;33.20;;;;;;5067377;28;20123;-61
2024/01/29 10:59:06;;;;;;;10.20;3.25;;;27.70;32.80;;;;;;5076385;28;20043;-62
2024/01/29 11:01:35;;;;;;;15.15;4.93;;;27.70;32.60;;;;;;5055151;28;20083;-63
2024/01/29 11:04:08;;;;;;;23.23;3.22;;;27.60;32.30;;;;;;5062812;28;20052;-64
2024/01/29 11:06:42;;;;;;;11.23;3.05;;;27.30;32.10;;;;;;5060901;28;20052;-66
2024/01/29 11:09:14;;;;;;;23.42;3.20;;;26.90;31.90;;;;;;5066156;28;20127;-64
2024/01/29 11:11:46;;;;;;;35.05;6.35;;;26.60;32.30;;;;;;5056065;28;20130;-61
2024/01/29 11:14:19;;;;;;;23.15;3.92;;;26.30;32.30;;;;;;5055525;28;20055;-64
2024/01/29 11:16:48;;;;;;;61.38;12.20;;;25.90;32.20;;;;;;5060096;28;20052;-64
2024/01/29 11:19:17;;;;;;;21.63;6.80;;;25.20;32.50;;;;;;5057297;28;20135;-65
2024/01/29 11:21:49;;;;;;;31.27;7.35;;;24.60;33.00;;;;;;5054266;28;20554;-64
2024/01/29 11:24:21;;;;;;;13.18;4.15;;;23.80;33.10;;;;;;5057173;28;20052;-62
2024/01/29 11:26:50;;;;;;;6.22;1.65;;;23.10;34.00;;;;;;5060966;28;20409;-63
2024/01/29 11:29:23;;;;;;;10.77;2.70;;;22.50;34.50;;;;;;5063551;28;20048;-65
2024/01/29 11:31:53;;;;;;;2.53;1.35;;;21.90;34.80;;;;;;5059873;28;20058;-64
2024/01/29 11:34:27;;;;;;;9.75;2.63;;;21.20;35.00;;;;;;5067730;28;20055;-63
2024/01/29 11:36:57;;;;;;;10.52;3.10;;;20.30;35.40;;;;;;5068158;28;20437;-64
2024/01/29 11:39:27;;;;;;;10.13;1.40;;;19.50;36.10;;;;;;5070086;28;20062;-65
2024/01/29 11:41:57;;;;;;;8.18;2.13;;;18.80;36.80;;;;;;5059816;28;20056;-63
2024/01/29 11:44:26;;;;;;;10.63;2.38;;;18.20;37.30;;;;;;5068887;28;20068;-63
2024/01/29 11:46:56;;;;;;;2.95;1.48;;;17.70;37.80;;;;;;5067704;28;20061;-62
2024/01/29 11:49:26;;;;;;;2.72;1.20;;;17.40;38.20;;;;;;5062550;28;20405;-65
2024/01/29 11:51:57;;;;;;;10.40;2.03;;;17.00;38.40;;;;;;5061489;28;20063;-65
2024/01/29 11:54:25;;;;;;;7.13;2.53;;;16.80;38.80;;;;;;5071982;28;20067;-65
2024/01/29 11:56:53;;;;;;;4.65;1.10;;;16.60;39.00;;;;;;5067590;28;20062;-62
2024/01/29 11:59:22;;;;;;;17.15;3.08;;;16.50;39.20;;;;;;5069249;28;20052;-64
2024/01/29 12:01:51;;;;;;;8.13;1.95;;;16.40;39.30;;;;;;5059083;28;20053;-65
2024/01/29 12:04:20;;;;;;;16.92;1.98;;;16.30;39.30;;;;;;5067162;28;20574;-65
2024/01/29 12:06:52;;;;;;;15.60;3.25;;;16.30;39.50;;;;;;5060708;28;20104;-66
2024/01/29 12:09:22;;;;;;;6.97;1.30;;;16.30;39.50;;;;;;5069770;28;20115;-65
2024/01/29 12:11:51;;;;;;;4.72;1.02;;;16.30;39.60;;;;;;5060780;28;20383;-65
2024/01/29 12:14:20;;;;;;;8.38;2.22;;;16.30;39.70;;;;;;5065981;28;20136;-64
2024/01/29 12:16:48;;;;;;;4.45;1.00;;;16.30;39.70;;;;;;5067675;28;20762;-63
2024/01/29 12:19:17;;;;;;;19.85;2.15;;;16.30;39.70;;;;;;5069589;28;20080;-62
2024/01/29 12:21:46;;;;;;;8.93;3.33;;;16.40;39.80;;;;;;5068352;28;20062;-63
2024/01/29 12:24:19;;;;;;;3.85;1.40;;;16.40;39.80;;;;;;5063053;28;20139;-67
2024/01/29 12:26:49;;;;;;;12.43;2.00;;;16.50;39.70;;;;;;5068333;28;20738;-66
2024/01/29 12:29:17;;;;;;;5.20;1.35;;;16.50;39.60;;;;;;5067559;28;20060;-67
2024/01/29 12:31:46;;;;;;;37.70;9.20;;;16.50;39.60;;;;;;5066396;28;20056;-65
2024/01/29 12:34:20;;;;;;;47.63;10.95;;;16.60;39.70;;;;;;5053178;28;20064;-77
2024/01/29 12:36:52;;;;;;;2.63;1.20;;;16.70;39.60;;;;;;5060583;28;20510;-63
2024/01/29 12:39:21;;;;;;;8.85;1.05;;;16.70;39.60;;;;;;5067823;28;20049;-65
2024/01/29 12:41:51;;;;;;;10.98;1.70;;;16.80;39.50;;;;;;5062358;28;20043;-65
2024/01/29 12:44:20;;;;;;;10.75;1.58;;;16.80;39.50;;;;;;5071591;28;20053;-65
2024/01/29 12:46:56;;;;;;;13.88;2.42;;;16.80;39.50;;;;;;5058366;28;20074;-66
2024/01/29 12:49:25;;;;;;;12.80;3.35;;;16.90;39.50;;;;;;5062542;28;20056;-63
2024/01/29 12:51:54;;;;;;;11.65;1.58;;;16.90;39.50;;;;;;5085659;28;20196;-62
2024/01/29 12:54:23;;;;;;;3.25;1.13;;;17.00;39.60;;;;;;5061918;28;20083;-64
2024/01/29 12:56:52;;;;;;;4.25;1.52;;;17.00;39.40;;;;;;5065393;28;20498;-67